createdAt,value
2018-12-25T00:07:39.742Z,87.27
2018-12-25T00:10:06.933Z,87.37
2018-12-25T00:12:53.598Z,87.45
2018-12-25T00:15:20.662Z,87.36
2018-12-25T00:17:47.839Z,87.17
2018-12-25T00:20:15.503Z,86.83
2018-12-25T00:23:03.930Z,86.47
2018-12-25T00:25:31.167Z,86.36
2018-12-25T00:27:58.365Z,86.35
2018-12-25T00:30:25.551Z,86.42
2018-12-25T00:32:52.863Z,86.42
2018-12-25T00:35:39.854Z,86.50
2018-12-25T00:38:26.914Z,86.55
2018-12-25T00:40:54.086Z,86.52
2018-12-25T00:43:21.358Z,86.51
2018-12-25T00:46:08.025Z,86.42
2018-12-25T00:48:35.188Z,86.46
2018-12-25T00:51:02.419Z,86.61
2018-12-25T00:53:29.781Z,86.67
2018-12-25T00:55:56.983Z,86.69
2018-12-25T01:01:04.127Z,86.72
2018-12-25T01:03:31.345Z,86.72
2018-12-25T01:05:58.418Z,86.64
2018-12-25T01:08:25.972Z,86.51
2018-12-25T01:11:12.588Z,86.44
2018-12-25T01:14:20.550Z,86.51
2018-12-25T01:20:07.637Z,86.85
2018-12-25T01:22:34.847Z,86.98
2018-12-25T01:25:02.026Z,87.04
2018-12-25T01:31:04.202Z,87.20
2018-12-25T01:34:12.210Z,87.25
2018-12-25T01:36:58.882Z,87.31
2018-12-25T01:39:25.956Z,87.40
2018-12-25T01:42:12.648Z,87.46
2018-12-25T01:44:39.706Z,87.53
2018-12-25T01:47:06.915Z,87.67
2018-12-25T01:50:15.231Z,87.71
2018-12-25T01:52:42.434Z,87.84
2018-12-25T01:55:29.113Z,88.13
2018-12-25T01:57:56.297Z,88.20
2018-12-25T02:00:42.874Z,88.27
2018-12-25T02:03:10.046Z,88.35
2018-12-25T02:05:37.504Z,88.41
2018-12-25T02:08:05.052Z,88.43
2018-12-25T02:10:32.239Z,88.49
2018-12-25T02:13:18.887Z,88.52
2018-12-25T02:15:46.327Z,88.53
2018-12-25T02:18:13.551Z,88.62
2018-12-25T02:21:21.475Z,88.77
2018-12-25T02:27:28.008Z,88.78
2018-12-25T02:29:55.240Z,88.67
2018-12-25T02:32:24.329Z,88.62
2018-12-25T02:34:51.751Z,88.60
2018-12-25T02:37:18.850Z,88.56
2018-12-25T02:39:46.064Z,88.60
2018-12-25T02:42:24.933Z,88.67
2018-12-25T02:44:52.082Z,88.68
2018-12-25T02:47:19.240Z,88.78
2018-12-25T02:49:50.412Z,88.73
2018-12-25T02:52:22.430Z,88.72
2018-12-25T02:54:50.041Z,88.60
2018-12-25T02:57:36.646Z,88.49
2018-12-25T03:00:46.604Z,88.45
2018-12-25T03:03:34.015Z,88.33
2018-12-25T03:06:41.956Z,88.06
2018-12-25T03:09:09.132Z,87.70
2018-12-25T03:11:36.346Z,87.46
2018-12-25T03:14:23.129Z,86.90
2018-12-25T03:17:09.734Z,86.52
2018-12-25T03:19:36.941Z,86.22
2018-12-25T03:22:23.579Z,86.05
2018-12-25T03:24:50.794Z,85.90
2018-12-25T03:27:17.955Z,85.75
2018-12-25T03:30:04.636Z,85.64
2018-12-25T03:32:51.311Z,84.96
2018-12-25T03:35:18.791Z,83.65
2018-12-25T03:37:45.967Z,83.20
2018-12-25T03:40:13.126Z,83.04
2018-12-25T03:42:40.743Z,82.15
2018-12-25T03:51:36.852Z,81.03
2018-12-25T03:57:24.475Z,80.33
2018-12-25T03:59:51.630Z,80.41
2018-12-25T04:02:18.818Z,80.45
2018-12-25T04:04:46.038Z,80.34
2018-12-25T04:07:13.196Z,80.12
2018-12-25T04:09:40.351Z,79.68
2018-12-25T04:12:48.383Z,79.56
2018-12-25T04:15:15.438Z,79.21
2018-12-25T04:21:03.763Z,78.50
2018-12-25T04:23:50.433Z,77.89
2018-12-25T04:26:58.469Z,77.50
2018-12-25T04:29:45.116Z,77.39
2018-12-25T04:32:31.882Z,77.16
2018-12-25T04:34:59.077Z,76.75
2018-12-25T04:37:26.245Z,76.77
2018-12-25T04:45:35.005Z,77.31
2018-12-25T04:48:02.173Z,76.32
2018-12-25T04:50:41.487Z,76.37
2018-12-25T04:53:08.675Z,76.07
2018-12-25T04:55:35.921Z,76.28
2018-12-25T04:58:43.900Z,76.09
2018-12-25T05:04:10.322Z,76.33
2018-12-25T05:06:37.525Z,76.33
2018-12-25T05:09:37.713Z,76.40
2018-12-25T05:12:05.268Z,76.78
2018-12-25T05:14:32.448Z,76.76
2018-12-25T05:16:59.641Z,77.05
2018-12-25T05:19:46.301Z,76.98
2018-12-25T05:22:13.813Z,76.39
2018-12-25T05:24:40.966Z,76.23
2018-12-25T05:27:27.750Z,76.99
2018-12-25T05:29:55.222Z,77.42
2018-12-25T05:32:41.928Z,77.35
2018-12-25T05:35:09.087Z,76.98
2018-12-25T05:37:36.297Z,76.83
2018-12-25T05:40:15.017Z,76.11
2018-12-25T05:46:02.307Z,76.19
2018-12-25T05:48:41.615Z,76.12
2018-12-25T05:51:28.255Z,75.79
2018-12-25T05:53:55.449Z,76.08
2018-12-25T05:56:22.598Z,76.16
2018-12-25T05:58:49.852Z,76.69
2018-12-25T06:01:17.010Z,76.30
2018-12-25T06:03:44.190Z,76.17
2018-12-25T06:06:11.380Z,75.86
2018-12-25T06:08:38.558Z,75.71
2018-12-25T06:11:05.616Z,76.20
2018-12-25T06:13:52.301Z,76.52
2018-12-25T06:16:19.473Z,76.08
2018-12-25T06:18:46.661Z,76.09
2018-12-25T06:21:45.762Z,75.85
2018-12-25T06:24:13.315Z,75.98
2018-12-25T06:26:40.393Z,76.16
2018-12-25T06:31:48.242Z,76.05
2018-12-25T06:34:34.904Z,76.39
2018-12-25T06:37:21.603Z,76.74
2018-12-25T06:43:01.516Z,76.88
2018-12-25T06:45:40.824Z,76.04
2018-12-25T06:48:27.689Z,76.17
2018-12-25T06:51:14.239Z,76.50
2018-12-25T06:53:42.083Z,76.74
2018-12-25T06:56:09.619Z,76.12
2018-12-25T06:58:36.785Z,76.48
2018-12-25T07:01:04.005Z,76.24
2018-12-25T07:03:31.194Z,76.47
2018-12-25T07:05:58.284Z,76.87
2018-12-25T07:11:05.457Z,76.16
2018-12-25T07:13:52.312Z,76.03
2018-12-25T07:16:38.935Z,76.42
2018-12-25T07:19:25.740Z,76.37
2018-12-25T07:21:52.885Z,76.29
2018-12-25T07:24:31.639Z,76.50
2018-12-25T07:26:58.802Z,76.86
2018-12-25T07:29:45.363Z,77.75
2018-12-25T07:35:25.471Z,76.94
2018-12-25T07:37:52.673Z,76.73
2018-12-25T07:46:01.381Z,76.07
2018-12-25T07:48:28.534Z,76.40
2018-12-25T07:50:55.697Z,76.18
2018-12-25T07:53:42.721Z,76.33
2018-12-25T07:56:09.889Z,76.73
2018-12-25T07:58:37.068Z,76.24
2018-12-25T08:01:04.325Z,76.47
2018-12-25T08:03:50.961Z,75.90
2018-12-25T08:09:11.614Z,75.65
2018-12-25T08:11:38.847Z,75.82
2018-12-25T08:14:25.652Z,76.08
2018-12-25T08:17:12.437Z,75.80
2018-12-25T08:19:39.605Z,75.43
2018-12-25T08:22:06.801Z,75.59
2018-12-25T08:27:35.362Z,75.76
2018-12-25T08:30:02.562Z,75.22
2018-12-25T08:33:01.665Z,75.25
2018-12-25T08:35:28.749Z,75.08
2018-12-25T08:38:02.663Z,74.32
2018-12-25T08:40:29.889Z,74.00
2018-12-25T08:42:57.060Z,74.31
2018-12-25T08:45:24.213Z,74.78
2018-12-25T08:47:51.410Z,74.66
2018-12-25T08:50:18.605Z,74.71
2018-12-25T08:53:05.172Z,73.76
2018-12-25T08:59:18.039Z,73.42
2018-12-25T09:01:45.257Z,73.12
2018-12-25T09:04:31.942Z,73.31
2018-12-25T09:07:06.009Z,72.74
2018-12-25T09:09:52.700Z,73.05
2018-12-25T09:12:19.867Z,73.39
2018-12-25T09:15:27.906Z,72.86
2018-12-25T09:17:55.126Z,72.31
2018-12-25T09:20:22.302Z,72.51
2018-12-25T09:22:49.556Z,72.55
2018-12-25T09:25:16.732Z,72.41
2018-12-25T09:27:43.944Z,71.66
2018-12-25T09:30:11.432Z,71.55
2018-12-25T09:32:38.676Z,71.75
2018-12-25T09:35:05.851Z,71.83
2018-12-25T09:37:33.076Z,71.43
2018-12-25T09:40:00.243Z,70.09
2018-12-25T09:42:27.906Z,70.42
2018-12-25T09:50:57.117Z,68.86
2018-12-25T09:53:44.147Z,68.52
2018-12-25T09:59:32.311Z,68.21
2018-12-25T10:02:19.065Z,68.36
2018-12-25T10:04:46.293Z,67.42
2018-12-25T10:07:54.276Z,66.81
2018-12-25T10:10:21.517Z,67.11
2018-12-25T10:13:08.264Z,67.21
2018-12-25T10:15:35.418Z,67.21
2018-12-25T10:18:02.870Z,66.33
2018-12-25T10:23:30.991Z,66.96
2018-12-25T10:25:58.177Z,67.17
2018-12-25T10:28:25.722Z,67.16
2018-12-25T10:31:12.484Z,66.45
2018-12-25T10:37:13.754Z,66.34
2018-12-25T10:39:40.969Z,66.81
2018-12-25T10:42:08.057Z,65.95
2018-12-25T10:45:16.103Z,65.98
2018-12-25T10:47:43.265Z,65.56
2018-12-25T10:50:10.822Z,64.92
2018-12-25T10:55:38.858Z,65.19
2018-12-25T11:04:37.547Z,65.61
2018-12-25T11:15:47.387Z,62.91
2018-12-25T11:18:49.229Z,63.11
2018-12-25T11:23:56.232Z,62.30
2018-12-25T11:26:23.465Z,61.63
2018-12-25T11:35:12.926Z,61.48
2018-12-25T11:38:21.021Z,60.90
2018-12-25T11:40:48.264Z,60.98
2018-12-25T11:43:15.735Z,60.24
2018-12-25T11:46:02.673Z,60.29
2018-12-25T11:48:29.836Z,59.50
2018-12-25T11:50:56.938Z,59.22
2018-12-25T11:53:24.158Z,59.61
2018-12-25T11:55:51.354Z,59.40
2018-12-25T11:58:18.556Z,60.29
2018-12-25T12:04:06.055Z,61.73
2018-12-25T12:06:52.756Z,61.72
2018-12-25T12:09:39.474Z,61.20
2018-12-25T12:15:26.964Z,61.02
2018-12-25T12:17:54.173Z,61.36
2018-12-25T12:20:21.341Z,62.24
2018-12-25T12:22:48.571Z,62.48
2018-12-25T12:25:15.742Z,62.82
2018-12-25T12:27:42.954Z,62.92
2018-12-25T12:30:10.946Z,62.58
2018-12-25T12:32:38.523Z,62.72
2018-12-25T12:35:05.703Z,62.02
2018-12-25T12:38:14.064Z,62.64
2018-12-25T12:40:41.238Z,62.33
2018-12-25T12:43:27.996Z,61.76
2018-12-25T12:45:55.205Z,61.91
2018-12-25T12:48:22.388Z,60.96
2018-12-25T12:53:49.427Z,61.80
2018-12-25T12:56:16.596Z,62.66
2018-12-25T13:02:04.505Z,62.13
2018-12-25T13:04:51.236Z,62.03
2018-12-25T13:07:59.297Z,62.17
2018-12-25T13:10:26.529Z,62.13
2018-12-25T13:12:53.723Z,62.69
2018-12-25T13:15:21.327Z,63.33
2018-12-25T13:20:29.931Z,63.92
2018-12-25T13:23:09.015Z,62.72
2018-12-25T13:28:37.039Z,63.90
2018-12-25T13:31:45.064Z,64.30
2018-12-25T13:34:31.855Z,65.34
2018-12-25T13:36:58.968Z,65.52
2018-12-25T13:39:26.507Z,65.33
2018-12-25T13:42:34.517Z,64.75
2018-12-25T13:45:01.620Z,64.53
2018-12-25T13:47:31.260Z,64.60
2018-12-25T13:50:18.048Z,63.86
2018-12-25T13:52:45.222Z,63.73
2018-12-25T13:58:13.514Z,63.76
2018-12-25T14:03:49.075Z,65.50
2018-12-25T14:06:16.256Z,65.68
2018-12-25T14:08:56.257Z,65.80
2018-12-25T14:11:23.843Z,65.49
2018-12-25T14:14:31.906Z,64.89
2018-12-25T14:20:00.880Z,65.43
2018-12-25T14:22:28.083Z,65.32
2018-12-25T14:24:55.325Z,64.85
2018-12-25T14:30:16.145Z,65.07
2018-12-25T14:32:43.412Z,65.33
2018-12-25T14:38:23.412Z,66.55
2018-12-25T14:41:02.980Z,66.96
2018-12-25T14:43:30.556Z,67.19
2018-12-25T14:45:57.764Z,66.82
2018-12-25T14:48:44.471Z,66.69
2018-12-25T14:51:11.800Z,67.13
2018-12-25T14:53:38.977Z,66.87
2018-12-25T14:56:06.214Z,67.08
2018-12-25T14:58:33.695Z,66.97
2018-12-25T15:01:41.766Z,67.07
2018-12-25T15:07:29.398Z,67.72
2018-12-25T15:09:56.643Z,68.12
2018-12-25T15:12:43.333Z,68.46
2018-12-25T15:15:10.943Z,68.40
2018-12-25T15:17:38.125Z,68.70
2018-12-25T15:20:46.539Z,68.75
2018-12-25T15:26:12.966Z,69.80
2018-12-25T15:31:41.213Z,69.75
2018-12-25T15:37:09.584Z,70.63
2018-12-25T15:39:36.716Z,71.54
2018-12-25T15:42:03.921Z,71.86
2018-12-25T15:45:11.855Z,72.65
2018-12-25T15:47:39.046Z,72.94
2018-12-25T15:50:47.474Z,72.92
2018-12-25T15:53:14.828Z,72.44
2018-12-25T15:55:42.041Z,72.37
2018-12-25T16:01:10.536Z,73.31
2018-12-25T16:03:37.711Z,73.38
2018-12-25T16:06:36.838Z,73.35
2018-12-25T16:18:29.827Z,73.88
2018-12-25T16:20:56.934Z,74.03
2018-12-25T16:23:45.559Z,73.85
2018-12-25T16:26:51.928Z,73.80
2018-12-25T16:29:19.890Z,73.87
2018-12-25T16:32:06.418Z,73.68
2018-12-25T16:34:33.947Z,73.70
2018-12-25T16:37:42.116Z,73.81
2018-12-25T16:40:09.338Z,73.98
2018-12-25T16:42:36.559Z,74.04
2018-12-25T16:45:04.231Z,74.22
2018-12-25T16:47:31.391Z,73.86
2018-12-25T16:49:58.584Z,73.96
2018-12-25T16:52:25.706Z,73.96
2018-12-25T16:54:53.640Z,73.94
2018-12-25T17:00:41.156Z,74.04
2018-12-25T17:06:09.666Z,74.21
2018-12-25T17:08:36.775Z,73.81
2018-12-25T17:11:03.968Z,73.84
2018-12-25T17:13:31.206Z,73.81
2018-12-25T17:18:37.584Z,74.46
2018-12-25T17:21:04.760Z,74.50
2018-12-25T17:23:32.002Z,74.29
2018-12-25T17:25:59.234Z,74.30
2018-12-25T17:28:27.844Z,74.48
2018-12-25T17:31:15.282Z,74.34
2018-12-25T17:39:57.180Z,74.37
2018-12-25T17:42:24.401Z,74.75
2018-12-25T17:47:50.294Z,74.85
2018-12-25T17:50:17.529Z,74.79
2018-12-25T17:52:44.811Z,74.66
2018-12-25T17:55:31.405Z,74.38
2018-12-25T17:58:18.095Z,74.34
2018-12-25T18:00:45.329Z,74.43
2018-12-25T18:03:31.985Z,74.51
2018-12-25T18:06:40.060Z,74.68
2018-12-25T18:12:29.942Z,74.54
2018-12-25T18:14:57.554Z,74.31
2018-12-25T18:20:45.494Z,74.66
2018-12-25T18:23:13.060Z,74.80
2018-12-25T18:25:40.283Z,74.89
2018-12-25T18:28:48.330Z,75.04
2018-12-25T18:31:15.770Z,75.01
2018-12-25T18:34:02.457Z,74.83
2018-12-25T18:43:17.733Z,75.27
2018-12-25T18:45:44.993Z,75.69
2018-12-25T18:48:12.231Z,75.93
2018-12-25T18:50:39.323Z,75.97
2018-12-25T18:53:06.508Z,76.25
2018-12-25T18:55:53.163Z,76.32
2018-12-25T19:01:34.829Z,76.25
2018-12-25T19:04:21.515Z,75.60
2018-12-25T19:07:08.305Z,75.96
2018-12-25T19:09:35.513Z,76.81
2018-12-25T19:12:02.763Z,77.52
2018-12-25T19:14:29.964Z,78.12
2018-12-25T19:17:09.855Z,77.89
2018-12-25T19:19:37.085Z,78.14
2018-12-25T19:22:04.285Z,78.61
2018-12-25T19:24:36.195Z,79.01
2018-12-25T19:27:06.713Z,78.55
2018-12-25T19:33:39.710Z,78.02
2018-12-25T19:39:29.587Z,76.33
2018-12-25T19:41:56.822Z,76.19
2018-12-25T19:44:24.006Z,75.55
2018-12-25T19:46:51.219Z,75.68
2018-12-25T19:49:18.470Z,76.39
2018-12-25T19:51:45.693Z,77.03
2018-12-25T19:54:12.913Z,77.32
2018-12-25T19:59:18.043Z,77.43
2018-12-25T20:01:45.649Z,76.96
2018-12-25T20:04:53.743Z,75.82
2018-12-25T20:08:16.664Z,75.33
2018-12-25T20:11:20.945Z,74.29
2018-12-25T20:14:27.079Z,74.40
2018-12-25T20:17:33.299Z,74.54
2018-12-25T20:24:23.297Z,74.92
2018-12-25T20:27:29.578Z,75.21
2018-12-25T20:30:35.773Z,75.87
2018-12-25T20:37:10.066Z,76.96
2018-12-25T20:40:16.470Z,77.49
2018-12-25T20:43:22.674Z,77.72
2018-12-25T20:46:28.753Z,77.67
2018-12-25T20:49:32.663Z,78.08
2018-12-25T20:52:38.767Z,78.25
2018-12-25T20:55:45.016Z,77.88
2018-12-25T20:58:51.150Z,76.82
2018-12-25T21:01:57.292Z,77.14
2018-12-25T21:08:40.460Z,78.79
2018-12-25T21:11:46.593Z,79.39
2018-12-25T21:14:52.780Z,79.95
2018-12-25T21:17:58.911Z,80.10
2018-12-25T21:24:48.894Z,81.33
2018-12-25T21:27:35.038Z,81.93
2018-12-25T21:30:44.410Z,82.23
2018-12-25T21:33:11.741Z,82.43
2018-12-25T21:36:19.725Z,82.60
2018-12-25T21:38:46.901Z,82.97
2018-12-25T21:41:54.963Z,83.26
2018-12-25T21:47:13.475Z,83.91
2018-12-25T22:08:23.081Z,84.33
2018-12-25T22:10:50.179Z,84.33
2018-12-25T22:13:17.374Z,84.26
2018-12-25T22:15:44.483Z,84.38
2018-12-25T22:18:12.067Z,84.56
2018-12-25T22:21:11.299Z,84.62
2018-12-25T22:23:38.523Z,84.69
2018-12-25T22:26:05.836Z,84.95
2018-12-25T22:28:54.694Z,85.12
2018-12-25T22:31:22.236Z,85.45
2018-12-25T22:33:49.444Z,85.58
2018-12-25T22:36:16.964Z,85.97
2018-12-25T22:38:44.207Z,86.20
2018-12-25T22:41:11.380Z,86.27
2018-12-25T22:43:38.989Z,86.59
2018-12-25T22:46:46.981Z,86.80
2018-12-25T22:49:14.261Z,86.92
2018-12-25T22:51:41.402Z,87.07
2018-12-25T22:54:08.600Z,87.21
2018-12-25T22:59:35.468Z,87.23
2018-12-25T23:02:02.956Z,87.27
2018-12-25T23:04:30.172Z,87.48
2018-12-25T23:06:57.766Z,87.65
2018-12-25T23:09:44.441Z,87.63
2018-12-25T23:12:11.619Z,87.63
2018-12-25T23:14:38.818Z,87.80
2018-12-25T23:17:06.062Z,87.94
2018-12-25T23:19:33.289Z,87.97
2018-12-25T23:22:19.952Z,88.05
2018-12-25T23:24:47.628Z,88.08
2018-12-25T23:27:14.788Z,88.07
2018-12-25T23:29:42.029Z,88.22
2018-12-25T23:32:09.199Z,88.27
2018-12-25T23:34:36.319Z,88.36
2018-12-25T23:37:03.515Z,88.52
2018-12-25T23:42:10.265Z,88.44
2018-12-25T23:44:37.350Z,88.55
2018-12-25T23:47:04.524Z,88.59
2018-12-25T23:52:46.366Z,88.59
2018-12-25T23:55:14.065Z,88.75
2018-12-25T23:57:41.130Z,88.72
